KEWBKMIV

Guest
Details From KEWB - New Bedford Rgnl
To KMIV - Millville Muni
Flight Number -
Tags Generated
Created
Modified
Stats Distance 233 nm / 432 km
Max Altitude 0 ft / 0 m
Waypoints 3
Social Downloads 3
Likes 0
Share VATSIM

Download

Looking for another format? Having issues loading an existing format? Contact us
Advertisement - Login to hide

Notes

Generated

Route

KEWB UNAYY KMIV

ID Type Via Altitude Latitude Longitude Leg Dist Tot Dist Heading (true) Name
O KEWB APT - 0 ft / 0 m 41.67169˚ -70.96452˚ - 0 nm - -
UNAYY FIX - 0 ft / 0 m 39.54668˚ -74.79174˚ 216 nm 216 nm 235° / 233° -
O KMIV APT - 0 ft / 0 m 39.37362˚ -75.07905˚ 16 nm 233 nm 232° / 232° -

Altitude Profile

Advertisement - Login to hide

Weather


0- 5 10 15 20 25 30 35+ Temperature / ° C

Clouds and Precipitation
Forecast for 2017-12-17 12:00 UTC. Updated an hour ago

Ground ~20,000 ft ~40,000 ft Winds

KEWB

Details ICAO KEWB (EWB)
Name NEW BEDFORD RGNL
Region United States
Timezone America/New_York (UTC-5.0)
Stats Elevation 80 ft / 24 m (AMSL)
Location 41.676544° -70.957800°
Runways 2
Magnetic Variation 14.517° W

METAR

KEWB 170753Z AUTO 30005KT 10SM CLR M06/M11 A3021 RMK AO2 SLP229 T10611111

Decode

TAF

Not found

Departure Runways

ID Width Length Bearing (true) Bearing (mag) Surface Threshold Offset Overrun Length
05 150 ft / 46 m 4,998 ft / 1,523 m 38.34° 52.86° Asphalt 0 ft / 0 m 0 ft / 0 m
14 150 ft / 46 m 4,995 ft / 1,523 m 128.57° 143.09° Asphalt 0 ft / 0 m 0 ft / 0 m
23 150 ft / 46 m 4,998 ft / 1,523 m 218.35° 232.87° Asphalt 413 ft / 126 m 0 ft / 0 m
32 150 ft / 46 m 4,995 ft / 1,523 m 308.58° 323.10° Asphalt 0 ft / 0 m 0 ft / 0 m

KMIV

Details ICAO KMIV (MIV)
Name MILLVILLE MUNI
Region United States
Timezone America/New_York (UTC-5.0)
Stats Elevation 85 ft / 26 m (AMSL)
Location 39.367870° -75.072260°
Runways 2
Magnetic Variation 12.037° W

METAR

KMIV 170754Z AUTO 00000KT 10SM CLR M04/M05 A3024 RMK AO2 SLP240 I1000 T10391050

Decode

TAF

TAF KMIV 170520Z 1706/1806 VRB03KT P6SM SCT060 FM172100 09003KT P6SM BKN040

Decode

Destination Runways

ID Width Length Bearing (true) Bearing (mag) Surface Threshold Offset Overrun Length
10 150 ft / 46 m 5,988 ft / 1,825 m 90.02° 102.06° Asphalt 0 ft / 0 m 0 ft / 0 m
14 150 ft / 46 m 5,056 ft / 1,541 m 135.14° 147.18° Concrete 0 ft / 0 m 0 ft / 0 m
28 150 ft / 46 m 5,988 ft / 1,825 m 270.03° 282.07° Asphalt 0 ft / 0 m 0 ft / 0 m
32 150 ft / 46 m 5,056 ft / 1,541 m 315.15° 327.19° Concrete 0 ft / 0 m 0 ft / 0 m

Approach Navaids

Runway Type Ident Frequency Range Bearing (true) Bearing (mag) Slope Elevation
10 Localiser IMIV 110.90 MHz 18 nm / 33 km 90.03° 102.07° - 85 ft / 26 m (AMSL)
10 Glidescope IMIV 110.90 MHz 10 nm / 19 km 90.03° 102.07° 3.00° 61 ft / 19 m (AMSL)